This is the latest recevied weather packets stored in our database for station/object N3MFL. If no packets are shown the sender has not sent any weather packets the latest 10 day(s).
| Time | Temp. | Humidity | Pressure | Rain* | Wind** | Luminosity | Snow |
|---|---|---|---|---|---|---|---|
| 1777230438 | 16.11° C | 39% | 1020.8 hPa | 0 mm | - | 535 W/m² | - |
| 1777230135 | 16.11° C | 36% | 1020.9 hPa | 0 mm | - | 544 W/m² | - |
| 1777229529 | 15° C | 42% | 1020.9 hPa | 0 mm | - | 423 W/m² | - |
| 1777228618 | 14.44° C | 44% | 1021.1 hPa | 0 mm | - | 315 W/m² | - |
| 1777228010 | 15° C | 42% | 1021.1 hPa | 0 mm | - | 420 W/m² | - |
| 1777224672 | 12.78° C | 48% | 1021.1 hPa | 0 mm | - | 258 W/m² | - |
| 1777223766 | 12.78° C | 50% | 1021.2 hPa | 0 mm | - | 263 W/m² | - |
| 1777222856 | 12.22° C | 48% | 1021.5 hPa | 0 mm | - | 283 W/m² | - |
| 1777222554 | 12.22° C | 49% | 1021.4 hPa | 0 mm | - | 279 W/m² | - |
| 1777222251 | 11.67° C | 51% | 1021.4 hPa | 0 mm | - | 265 W/m² | - |
| 1777221644 | 11.67° C | 50% | 1021.6 hPa | 0 mm | - | 262 W/m² | - |
| 1777221341 | 11.67° C | 50% | 1021.6 hPa | 0 mm | - | 278 W/m² | - |
| 1777220435 | 11.67° C | 52% | 1021.7 hPa | 0 mm | - | 345 W/m² | - |
| 1777219832 | 11.11° C | 52% | 1021.7 hPa | 0 mm | - | 297 W/m² | - |
| 1777218921 | 11.67° C | 53% | 1021.7 hPa | 0 mm | - | 274 W/m² | - |
| 1777218618 | 11.11° C | 55% | 1021.9 hPa | 0 mm | - | 269 W/m² | - |
| 1777216799 | 10.56° C | 53% | 1021.6 hPa | 0 mm | - | 212 W/m² | - |
| 1777216496 | 10° C | 55% | 1021.6 hPa | 0 mm | - | 204 W/m² | - |
| 1777215890 | 10.56° C | 56% | 1021.7 hPa | 0 mm | - | 187 W/m² | - |
| 1777212555 | 8.89° C | 61% | 1021.5 hPa | 0 mm | - | 130 W/m² | - |
| 1777212253 | 9.44° C | 63% | 1021.5 hPa | 0 mm | - | 132 W/m² | - |
| 1777210736 | 8.33° C | 66% | 1021.3 hPa | 0 mm | - | 118 W/m² | - |
| 1777209519 | 8.33° C | 69% | 1021 hPa | 0 mm | - | 114 W/m² | - |
| 1777209215 | 8.33° C | 69% | 1021.1 hPa | 0 mm | - | 106 W/m² | - |
| 1777208305 | 7.78° C | 68% | 1020.9 hPa | 0 mm | - | 72 W/m² | - |
* Rain latest hour (hover to see other rain measurements)
** Current wind speed in m/s (hover to see current wind gust speed)